Time;durP1;ratioP1;P1;durP2;ratioP2;P2;SDS_P1;SDS_P2;PMS_P1;PMS_P2;Temp;Humidity;BMP_temperature;BMP_pressure;BME280_temperature;BME280_humidity;BME280_pressure;Samples;Min_cycle;Max_cycle;Signal;HPM_P1;HPM_P2
2022/02/28 00:00:16;;;;;;;10.38;5.75;;;6.10;84.50;;;;;;5079510;28;20204;-71
2022/02/28 00:02:42;;;;;;;13.35;5.63;;;6.10;83.90;;;;;;5093431;28;20249;-73
2022/02/28 00:05:09;;;;;;;14.55;5.90;;;6.10;84.30;;;;;;5093800;28;20190;-72
2022/02/28 00:07:34;;;;;;;9.40;5.32;;;6.10;84.50;;;;;;5094445;28;20659;-72
2022/02/28 00:10:00;;;;;;;10.98;5.38;;;6.10;84.40;;;;;;5096939;28;20211;-74
2022/02/28 00:12:26;;;;;;;10.50;5.85;;;6.00;84.50;;;;;;5092982;28;20192;-73
2022/02/28 00:14:52;;;;;;;13.48;6.10;;;6.10;84.60;;;;;;5092660;28;20231;-72
2022/02/28 00:17:17;;;;;;;14.55;5.75;;;6.10;84.60;;;;;;5092787;28;20788;-72
2022/02/28 00:19:43;;;;;;;11.98;6.03;;;6.00;84.50;;;;;;5101508;28;20188;-71
2022/02/28 00:22:08;;;;;;;14.90;5.47;;;6.00;84.50;;;;;;5097352;28;20242;-71
2022/02/28 00:24:34;;;;;;;12.65;5.43;;;6.00;84.90;;;;;;5089195;28;20541;-71
2022/02/28 00:27:00;;;;;;;10.07;5.82;;;6.00;84.90;;;;;;5097902;28;20186;-71
2022/02/28 00:29:25;;;;;;;11.27;5.75;;;6.00;85.00;;;;;;5077923;28;20261;-71
2022/02/28 00:31:51;;;;;;;9.90;5.80;;;6.00;84.90;;;;;;5073241;28;20269;-72
2022/02/28 00:34:17;;;;;;;15.40;6.15;;;6.00;85.40;;;;;;5077661;28;20181;-70
2022/02/28 00:36:42;;;;;;;11.68;5.60;;;6.00;85.30;;;;;;5091083;28;20661;-72
2022/02/28 00:39:08;;;;;;;16.30;5.85;;;5.90;85.40;;;;;;5082403;28;20228;-72
2022/02/28 00:41:34;;;;;;;10.52;6.15;;;6.00;85.30;;;;;;5072440;28;20177;-71
2022/02/28 00:44:00;;;;;;;10.82;5.65;;;6.00;85.30;;;;;;5077624;28;20205;-73
2022/02/28 00:46:25;;;;;;;11.85;5.65;;;5.90;85.20;;;;;;5069262;28;20664;-71
2022/02/28 00:48:51;;;;;;;12.07;5.80;;;5.90;85.30;;;;;;5086937;28;20712;-73
2022/02/28 00:51:17;;;;;;;12.45;5.70;;;5.90;85.30;;;;;;5052345;28;20235;-74
2022/02/28 00:53:42;;;;;;;9.38;5.72;;;5.90;85.50;;;;;;5091097;28;20251;-73
2022/02/28 00:56:08;;;;;;;10.82;5.97;;;5.80;85.50;;;;;;5089169;28;20660;-72
2022/02/28 00:58:34;;;;;;;14.02;6.07;;;5.90;85.60;;;;;;5091679;28;20666;-74
2022/02/28 01:01:00;;;;;;;8.80;5.65;;;5.80;85.50;;;;;;5072208;28;20587;-72
2022/02/28 01:03:26;;;;;;;11.68;6.30;;;5.80;85.50;;;;;;5073862;28;20197;-74
2022/02/28 01:05:52;;;;;;;11.20;5.63;;;5.70;85.50;;;;;;5107960;28;20246;-72
2022/02/28 01:08:19;;;;;;;15.85;6.53;;;5.70;85.70;;;;;;5089743;28;20201;-72
2022/02/28 01:10:45;;;;;;;10.15;5.80;;;5.70;85.80;;;;;;5073473;28;20202;-73
2022/02/28 01:13:11;;;;;;;11.52;5.85;;;5.70;85.90;;;;;;5076787;28;20689;-74
2022/02/28 01:15:40;;;;;;;11.18;5.70;;;5.70;85.90;;;;;;5073726;28;20280;-72
2022/02/28 01:18:07;;;;;;;11.48;6.18;;;5.70;86.00;;;;;;5055982;28;20192;-73
2022/02/28 01:20:34;;;;;;;11.50;5.63;;;5.60;85.90;;;;;;5093314;28;20232;-73
2022/02/28 01:22:59;;;;;;;13.13;6.30;;;5.60;86.00;;;;;;5071429;28;20202;-72
2022/02/28 01:25:25;;;;;;;12.88;6.20;;;5.60;86.00;;;;;;5096692;28;20182;-71
2022/02/28 01:27:51;;;;;;;13.60;6.32;;;5.50;86.00;;;;;;5072757;28;20174;-74
2022/02/28 01:30:17;;;;;;;17.08;6.72;;;5.50;86.10;;;;;;5079822;28;20186;-72
2022/02/28 01:32:43;;;;;;;10.57;6.13;;;5.50;86.30;;;;;;5071214;28;20189;-72
2022/02/28 01:35:10;;;;;;;13.10;6.40;;;5.50;86.40;;;;;;5106742;28;20657;-73
2022/02/28 01:37:37;;;;;;;10.15;6.03;;;5.50;86.50;;;;;;5076102;28;20274;-71
2022/02/28 01:40:04;;;;;;;14.63;6.70;;;5.40;86.40;;;;;;5071274;28;20178;-72
2022/02/28 01:42:30;;;;;;;12.00;5.90;;;5.40;86.40;;;;;;5095495;28;20307;-73
2022/02/28 01:44:56;;;;;;;14.10;6.40;;;5.40;86.50;;;;;;5098651;28;20209;-73
2022/02/28 01:47:22;;;;;;;11.70;5.82;;;5.30;86.70;;;;;;5097179;28;20182;-74
2022/02/28 01:49:47;;;;;;;11.85;5.95;;;5.30;86.80;;;;;;5096780;28;20176;-73
2022/02/28 01:52:16;;;;;;;11.95;6.15;;;5.30;87.00;;;;;;5081731;28;20181;-73
2022/02/28 01:54:45;;;;;;;13.50;6.53;;;5.30;87.20;;;;;;5081553;28;20178;-74
2022/02/28 01:57:12;;;;;;;12.25;6.50;;;5.30;87.20;;;;;;5076246;28;20178;-73
2022/02/28 01:59:37;;;;;;;10.73;5.85;;;5.20;87.20;;;;;;5075390;28;20197;-71
2022/02/28 02:02:03;;;;;;;11.00;6.32;;;5.20;87.30;;;;;;5098284;28;20212;-71
2022/02/28 02:04:29;;;;;;;12.73;6.03;;;5.20;87.40;;;;;;5081881;28;20221;-72
2022/02/28 02:06:55;;;;;;;13.45;7.25;;;5.10;87.50;;;;;;5076541;28;20445;-73
2022/02/28 02:09:22;;;;;;;13.13;7.60;;;5.50;88.40;;;;;;5082438;28;20411;-73
2022/02/28 02:11:49;;;;;;;14.27;7.65;;;5.80;87.60;;;;;;5073234;28;20417;-72
2022/02/28 02:14:16;;;;;;;11.80;7.53;;;5.90;86.90;;;;;;5071140;28;20998;-71
2022/02/28 02:16:42;;;;;;;11.87;7.53;;;6.00;86.40;;;;;;5069494;28;20401;-71
2022/02/28 02:19:09;;;;;;;13.55;7.57;;;6.10;85.80;;;;;;5089248;28;20758;-72
2022/02/28 02:21:35;;;;;;;14.73;7.63;;;6.10;85.70;;;;;;5068928;28;20414;-72
2022/02/28 02:24:00;;;;;;;13.98;7.47;;;6.10;86.30;;;;;;5069013;28;20420;-71
2022/02/28 02:26:26;;;;;;;14.73;8.02;;;6.20;86.30;;;;;;5075162;28;20497;-72
2022/02/28 02:28:52;;;;;;;13.13;7.82;;;6.20;85.30;;;;;;5069249;28;20398;-71
2022/02/28 02:31:18;;;;;;;12.83;7.57;;;6.20;85.30;;;;;;5068761;28;20475;-72
2022/02/28 02:33:45;;;;;;;14.90;7.90;;;6.10;85.10;;;;;;5070251;28;20420;-72
2022/02/28 02:36:12;;;;;;;15.40;7.82;;;6.10;85.20;;;;;;5058459;28;20420;-72
2022/02/28 02:38:39;;;;;;;14.68;7.55;;;6.10;85.20;;;;;;5067037;28;20457;-72
2022/02/28 02:41:07;;;;;;;9.23;6.72;;;6.10;85.40;;;;;;5072981;28;20492;-71
2022/02/28 02:43:35;;;;;;;12.65;7.68;;;6.00;85.40;;;;;;5074722;28;20402;-72
2022/02/28 02:46:01;;;;;;;13.20;7.87;;;6.00;85.70;;;;;;5069246;28;20394;-73
2022/02/28 02:48:27;;;;;;;10.95;7.40;;;6.00;86.00;;;;;;5070787;28;20410;-72
2022/02/28 02:51:00;;;;;;;13.45;7.60;;;6.00;85.90;;;;;;5075228;28;20459;-73
2022/02/28 02:53:27;;;;;;;14.88;7.93;;;6.00;86.00;;;;;;5104496;28;20708;-73
2022/02/28 02:55:53;;;;;;;12.77;7.00;;;6.00;86.00;;;;;;5074263;28;20411;-72
2022/02/28 02:58:20;;;;;;;13.35;7.22;;;6.10;85.40;;;;;;5068971;28;20414;-73
2022/02/28 03:00:51;;;;;;;12.10;7.35;;;6.00;85.30;;;;;;5071857;28;20417;-73
2022/02/28 03:03:22;;;;;;;11.68;7.60;;;5.90;85.40;;;;;;5076034;28;20410;-74
2022/02/28 03:05:50;;;;;;;13.10;7.70;;;5.90;86.00;;;;;;5081597;28;20444;-74
2022/02/28 03:08:17;;;;;;;11.93;7.57;;;5.90;85.80;;;;;;5072316;28;21284;-72
2022/02/28 03:10:45;;;;;;;13.73;7.80;;;5.90;86.10;;;;;;5080703;28;20408;-73
2022/02/28 03:13:11;;;;;;;12.75;7.70;;;5.90;86.90;;;;;;5067359;28;20496;-73
2022/02/28 03:15:37;;;;;;;13.00;7.43;;;5.90;86.30;;;;;;5069515;28;20406;-71
2022/02/28 03:18:07;;;;;;;11.98;7.47;;;5.80;87.20;;;;;;5074363;28;20485;-72
2022/02/28 03:20:34;;;;;;;12.13;7.53;;;5.80;86.60;;;;;;5063453;28;20413;-73
2022/02/28 03:22:59;;;;;;;12.27;7.60;;;5.80;86.80;;;;;;5074934;28;20443;-73
2022/02/28 03:25:25;;;;;;;12.63;7.60;;;5.70;86.40;;;;;;5060513;28;20398;-72
2022/02/28 03:28:01;;;;;;;12.82;7.65;;;5.70;87.20;;;;;;5069476;28;20429;-72
2022/02/28 03:30:28;;;;;;;12.77;7.70;;;5.70;87.20;;;;;;5065130;28;20417;-73
2022/02/28 03:32:55;;;;;;;12.82;8.13;;;5.70;87.20;;;;;;5075246;28;20408;-72
2022/02/28 03:35:21;;;;;;;12.65;7.07;;;5.70;86.90;;;;;;5094690;28;20890;-73
2022/02/28 03:37:47;;;;;;;11.80;7.45;;;5.60;86.90;;;;;;5066926;28;20421;-72
2022/02/28 03:40:12;;;;;;;14.40;7.90;;;5.60;87.60;;;;;;5067350;28;20408;-73
2022/02/28 03:42:38;;;;;;;12.93;7.90;;;5.60;87.70;;;;;;5069356;28;20504;-74
2022/02/28 03:45:05;;;;;;;13.70;8.00;;;5.60;87.70;;;;;;5050616;28;20415;-71
2022/02/28 03:47:31;;;;;;;13.45;7.70;;;5.60;86.80;;;;;;5054392;28;20498;-73
2022/02/28 03:50:16;;;;;;;13.35;7.57;;;5.60;86.80;;;;;;5072809;28;20483;-72
2022/02/28 03:52:41;;;;;;;13.57;7.80;;;5.50;86.80;;;;;;5065295;28;20502;-73
2022/02/28 03:55:27;;;;;;;14.68;8.00;;;5.50;87.10;;;;;;5071299;28;20494;-72
2022/02/28 03:57:55;;;;;;;12.55;8.00;;;5.40;87.10;;;;;;5071302;28;20420;-71
2022/02/28 04:00:24;;;;;;;13.40;8.18;;;5.40;87.70;;;;;;5053413;28;20484;-73
2022/02/28 04:02:50;;;;;;;12.90;8.40;;;5.30;88.10;;;;;;5069333;28;20506;-71
2022/02/28 04:05:19;;;;;;;14.07;7.93;;;5.30;87.80;;;;;;5056186;28;20187;-72
2022/02/28 04:07:47;;;;;;;14.70;7.63;;;5.00;88.50;;;;;;5066798;28;20555;-72
2022/02/28 04:10:13;;;;;;;;;;;4.70;89.20;;;;;;5075155;28;20458;-74
2022/02/28 04:12:40;;;;;;;;;;;4.50;89.40;;;;;;5072891;28;19908;-74
2022/02/28 04:15:06;;;;;;;14.98;8.48;;;4.30;89.80;;;;;;5065567;28;20438;-73
2022/02/28 04:17:33;;;;;;;13.75;7.15;;;4.40;90.50;;;;;;5071168;28;20210;-72
2022/02/28 04:20:03;;;;;;;13.52;6.80;;;4.30;90.30;;;;;;5079261;28;20197;-72
2022/02/28 04:22:30;;;;;;;16.63;7.53;;;4.20;90.50;;;;;;5074073;28;20638;-72
2022/02/28 04:24:56;;;;;;;13.35;6.80;;;4.00;90.50;;;;;;5071020;28;20230;-72
2022/02/28 04:27:22;;;;;;;10.82;6.72;;;4.00;90.50;;;;;;5074292;28;20178;-72
2022/02/28 04:29:49;;;;;;;16.70;7.07;;;3.90;90.60;;;;;;5077003;28;20258;-72
2022/02/28 04:32:20;;;;;;;14.00;8.02;;;3.80;90.60;;;;;;5072160;28;20741;-72
2022/02/28 04:34:56;;;;;;;14.93;8.10;;;4.10;91.30;;;;;;5065187;28;20407;-72
2022/02/28 04:37:22;;;;;;;13.87;8.63;;;4.40;91.10;;;;;;5067234;28;20414;-71
2022/02/28 04:39:48;;;;;;;14.53;8.40;;;4.60;90.70;;;;;;5074301;28;20401;-70
2022/02/28 04:42:15;;;;;;;13.50;8.00;;;4.60;90.70;;;;;;5077345;28;20420;-71
2022/02/28 04:44:41;;;;;;;12.37;8.50;;;4.70;90.60;;;;;;5083243;28;20433;-72
2022/02/28 04:47:07;;;;;;;14.10;7.90;;;4.80;90.60;;;;;;5078300;28;20966;-73
2022/02/28 04:50:11;;;;;;;14.63;7.95;;;4.90;90.50;;;;;;5084740;28;20417;-71
2022/02/28 04:52:37;;;;;;;14.90;8.20;;;4.90;90.30;;;;;;5080545;28;20530;-71
2022/02/28 04:55:04;;;;;;;13.35;7.80;;;4.90;90.00;;;;;;5072445;28;20443;-71
2022/02/28 04:57:36;;;;;;;14.23;8.18;;;4.90;90.00;;;;;;5066613;28;20408;-70
2022/02/28 05:00:05;;;;;;;11.23;7.67;;;4.90;90.00;;;;;;5068991;28;20392;-71
2022/02/28 05:02:32;;;;;;;13.35;7.80;;;4.90;90.10;;;;;;5101481;27;20416;-71
2022/02/28 05:05:12;;;;;;;15.48;8.10;;;4.90;90.00;;;;;;5078004;28;20406;-71
2022/02/28 05:07:39;;;;;;;11.97;7.47;;;4.90;90.00;;;;;;5078617;28;20404;-73
2022/02/28 05:10:06;;;;;;;12.43;7.60;;;4.90;89.90;;;;;;5082583;28;20422;-72
2022/02/28 05:12:32;;;;;;;14.43;7.85;;;4.90;90.20;;;;;;5057723;28;20408;-72
2022/02/28 05:14:58;;;;;;;13.98;7.47;;;4.90;90.10;;;;;;5071257;28;20841;-71
2022/02/28 05:17:24;;;;;;;13.73;7.37;;;5.00;90.20;;;;;;5103897;28;20409;-71
2022/02/28 05:19:49;;;;;;;11.85;7.25;;;5.00;89.70;;;;;;5083304;28;20396;-72
2022/02/28 05:22:15;;;;;;;12.77;7.00;;;5.00;89.60;;;;;;5080100;28;20485;-71
2022/02/28 05:24:51;;;;;;;13.10;7.33;;;4.90;89.60;;;;;;5071524;28;20744;-73
2022/02/28 05:27:17;;;;;;;12.00;7.25;;;4.90;89.70;;;;;;5073494;28;20449;-72
2022/02/28 05:29:43;;;;;;;11.73;6.93;;;4.90;89.40;;;;;;5067721;28;20433;-73
2022/02/28 05:32:11;;;;;;;12.30;7.57;;;5.00;89.10;;;;;;5053230;28;20917;-74
2022/02/28 05:34:39;;;;;;;10.85;6.95;;;4.90;89.60;;;;;;5081008;28;20415;-72
2022/02/28 05:37:05;;;;;;;11.40;7.05;;;5.00;90.10;;;;;;5077773;28;20424;-72
2022/02/28 05:39:44;;;;;;;13.63;7.13;;;4.90;89.20;;;;;;5078564;28;20409;-70
2022/02/28 05:42:14;;;;;;;12.10;7.80;;;4.90;89.00;;;;;;5078263;28;20513;-71
2022/02/28 05:44:42;;;;;;;11.73;7.70;;;4.90;89.20;;;;;;5073356;28;20866;-72
2022/02/28 05:47:07;;;;;;;13.32;7.10;;;4.90;89.20;;;;;;5057658;28;20475;-73
2022/02/28 05:49:41;;;;;;;13.05;7.40;;;4.90;89.60;;;;;;5083766;28;20400;-70
2022/02/28 05:52:06;;;;;;;13.93;7.70;;;4.90;89.70;;;;;;5072294;28;20520;-73
2022/02/28 05:54:32;;;;;;;12.40;7.37;;;4.90;90.00;;;;;;5095106;28;20420;-71
2022/02/28 05:56:58;;;;;;;13.30;7.60;;;4.90;90.00;;;;;;5091112;28;21779;-71
2022/02/28 05:59:23;;;;;;;12.23;6.97;;;4.90;89.70;;;;;;5090402;28;20414;-72
2022/02/28 06:01:49;;;;;;;12.43;7.22;;;4.90;89.40;;;;;;5090850;28;20423;-71
2022/02/28 06:04:15;;;;;;;11.73;7.33;;;4.90;89.50;;;;;;5079784;28;20423;-70
2022/02/28 06:06:40;;;;;;;12.00;7.57;;;4.90;89.50;;;;;;5093719;28;20477;-71
2022/02/28 06:09:06;;;;;;;11.82;7.63;;;4.90;89.50;;;;;;5090967;28;20445;-70
2022/02/28 06:11:32;;;;;;;13.23;7.50;;;4.90;90.00;;;;;;5084998;28;20893;-71
2022/02/28 06:13:58;;;;;;;11.20;7.00;;;4.90;89.50;;;;;;5087687;28;20397;-70
2022/02/28 06:16:24;;;;;;;13.60;7.70;;;4.90;89.80;;;;;;5070070;28;20497;-70
2022/02/28 06:18:50;;;;;;;12.95;7.68;;;4.90;89.90;;;;;;5081444;28;20412;-70
2022/02/28 06:21:15;;;;;;;12.67;8.00;;;4.90;89.80;;;;;;5090764;28;20898;-72
2022/02/28 06:23:42;;;;;;;14.30;7.80;;;4.90;89.70;;;;;;5084925;28;20421;-71
2022/02/28 06:26:09;;;;;;;13.18;8.07;;;4.90;90.00;;;;;;5067411;28;20453;-73
2022/02/28 06:28:35;;;;;;;15.80;8.25;;;4.90;89.80;;;;;;5091205;28;20405;-71
2022/02/28 06:31:03;;;;;;;12.88;8.55;;;4.90;89.80;;;;;;5096410;28;20421;-71
2022/02/28 06:33:29;;;;;;;13.88;8.48;;;4.80;89.90;;;;;;5067453;28;20421;-71
2022/02/28 06:35:54;;;;;;;13.48;8.32;;;4.80;90.00;;;;;;5051354;28;20406;-71
2022/02/28 06:38:21;;;;;;;13.70;8.27;;;4.80;90.10;;;;;;5081636;28;20482;-71
2022/02/28 06:40:48;;;;;;;12.13;8.03;;;4.80;90.50;;;;;;5085999;28;20421;-73
2022/02/28 06:43:17;;;;;;;13.88;8.35;;;4.70;90.00;;;;;;5086583;28;20421;-68
2022/02/28 06:45:44;;;;;;;14.87;8.07;;;4.70;90.10;;;;;;5074815;28;20420;-72
2022/02/28 06:48:10;;;;;;;12.38;7.97;;;4.70;90.30;;;;;;5088573;28;20406;-71
2022/02/28 06:50:36;;;;;;;12.52;8.18;;;4.80;90.30;;;;;;5088377;28;20471;-71
2022/02/28 06:53:02;;;;;;;14.87;8.53;;;4.80;90.30;;;;;;5088395;28;20413;-71
2022/02/28 06:55:27;;;;;;;13.63;7.93;;;4.70;90.50;;;;;;5094315;28;20433;-71
2022/02/28 06:57:53;;;;;;;15.70;7.88;;;4.80;90.50;;;;;;5085382;28;20398;-72
2022/02/28 07:00:19;;;;;;;13.77;7.63;;;4.80;90.30;;;;;;5091274;28;20413;-66
2022/02/28 07:03:02;;;;;;;14.53;7.90;;;4.80;90.30;;;;;;5080396;28;20455;-70
2022/02/28 07:05:28;;;;;;;12.48;7.90;;;4.70;90.20;;;;;;5087186;28;20398;-70
2022/02/28 07:07:54;;;;;;;14.35;8.18;;;4.70;90.30;;;;;;5097027;28;20900;-71
2022/02/28 07:10:22;;;;;;;11.70;7.60;;;4.70;90.40;;;;;;5077888;28;20925;-69
2022/02/28 07:12:48;;;;;;;13.93;7.63;;;4.80;90.40;;;;;;5079885;28;20862;-70
2022/02/28 07:15:14;;;;;;;12.77;7.65;;;4.80;90.40;;;;;;5087012;28;20402;-71
2022/02/28 07:17:40;;;;;;;15.50;7.77;;;4.80;90.40;;;;;;5081665;28;20426;-71
2022/02/28 07:20:06;;;;;;;14.02;7.85;;;4.80;90.10;;;;;;5092617;28;20408;-71
2022/02/28 07:22:32;;;;;;;14.05;8.02;;;4.80;90.10;;;;;;5090911;28;20765;-72
2022/02/28 07:24:57;;;;;;;14.23;8.10;;;4.90;90.10;;;;;;5078051;28;20454;-70
2022/02/28 07:27:23;;;;;;;11.65;7.50;;;4.90;90.40;;;;;;5077269;28;20458;-73
2022/02/28 07:29:48;;;;;;;11.80;7.60;;;5.00;90.30;;;;;;5091925;28;20894;-71
2022/02/28 07:32:14;;;;;;;11.57;7.68;;;5.00;90.10;;;;;;5091173;28;20455;-71
2022/02/28 07:34:40;;;;;;;14.23;7.80;;;5.00;89.50;;;;;;5093348;28;20449;-72
2022/02/28 07:37:05;;;;;;;12.75;8.05;;;5.00;89.60;;;;;;5074381;28;20412;-73
2022/02/28 07:39:32;;;;;;;12.60;7.97;;;5.00;89.20;;;;;;5068561;28;20418;-73
2022/02/28 07:42:00;;;;;;;12.65;7.90;;;5.00;89.00;;;;;;5092336;28;20922;-71
2022/02/28 07:44:26;;;;;;;12.15;7.53;;;5.00;89.50;;;;;;5090562;28;20526;-69
2022/02/28 07:46:52;;;;;;;13.20;7.80;;;5.00;89.40;;;;;;5096896;28;20410;-71
2022/02/28 07:49:17;;;;;;;13.02;7.63;;;5.10;89.00;;;;;;5099009;28;20911;-70
2022/02/28 07:51:43;;;;;;;12.73;7.53;;;5.10;89.20;;;;;;5097742;28;20394;-69
2022/02/28 07:54:10;;;;;;;12.75;7.75;;;5.10;88.80;;;;;;5067066;28;20409;-70
2022/02/28 07:56:35;;;;;;;13.38;7.82;;;5.20;89.10;;;;;;5090701;28;20808;-69
2022/02/28 07:59:01;;;;;;;13.02;7.32;;;5.20;88.50;;;;;;5090635;28;20247;-70
2022/02/28 08:01:27;;;;;;;13.68;6.43;;;4.90;89.30;;;;;;5085597;28;20194;-69
2022/02/28 08:03:53;;;;;;;12.27;6.78;;;4.70;90.00;;;;;;5096208;28;20216;-70
2022/02/28 08:06:18;;;;;;;9.95;6.63;;;4.50;90.20;;;;;;5094363;28;20182;-69
2022/02/28 08:08:44;;;;;;;15.35;6.65;;;4.40;90.40;;;;;;5094235;28;20272;-68
2022/02/28 08:11:10;;;;;;;10.48;6.50;;;4.30;90.40;;;;;;5093205;28;20196;-69
2022/02/28 08:13:35;;;;;;;17.52;6.57;;;4.30;90.50;;;;;;5087516;28;20211;-70
2022/02/28 08:16:01;;;;;;;11.23;7.05;;;4.30;90.50;;;;;;5090673;28;20185;-70
2022/02/28 08:18:27;;;;;;;13.27;7.22;;;4.30;90.60;;;;;;5092252;28;20193;-68
2022/02/28 08:20:53;;;;;;;16.33;6.60;;;4.40;90.60;;;;;;5080029;28;21739;-70
2022/02/28 08:23:19;;;;;;;12.43;7.13;;;4.40;90.70;;;;;;5072803;28;20243;-70
2022/02/28 08:25:45;;;;;;;12.38;7.00;;;4.50;90.70;;;;;;5095228;28;20186;-70
2022/02/28 08:28:12;;;;;;;11.80;6.93;;;4.60;90.80;;;;;;5087102;28;20277;-70
2022/02/28 08:30:38;;;;;;;13.45;6.53;;;4.70;91.00;;;;;;5074095;28;20676;-69
2022/02/28 08:33:04;;;;;;;14.75;6.68;;;4.90;91.10;;;;;;5101190;28;20638;-67
2022/02/28 08:35:30;;;;;;;16.27;6.78;;;5.00;91.10;;;;;;5094203;28;20288;-70
2022/02/28 08:37:56;;;;;;;14.10;6.30;;;5.40;91.90;;;;;;5092364;28;20241;-69
2022/02/28 08:40:21;;;;;;;12.57;8.18;;;5.80;91.60;;;;;;5089283;28;20819;-69
2022/02/28 08:42:47;;;;;;;12.30;6.78;;;6.50;91.40;;;;;;5099035;28;20177;-69
2022/02/28 08:45:13;;;;;;;10.05;6.88;;;7.40;91.30;;;;;;5091661;28;20210;-71
2022/02/28 08:47:39;;;;;;;10.55;7.03;;;8.40;90.30;;;;;;5068351;28;20461;-69
2022/02/28 08:50:06;;;;;;;12.20;6.80;;;10.60;70.80;;;;;;5086428;28;20427;-70
2022/02/28 08:52:32;;;;;;;10.80;6.72;;;12.50;58.80;;;;;;5095189;28;20817;-69
2022/02/28 08:54:59;;;;;;;11.40;6.53;;;13.90;53.10;;;;;;5093849;28;20403;-68
2022/02/28 08:57:25;;;;;;;11.98;6.30;;;15.00;50.10;;;;;;5070599;28;20462;-68
2022/02/28 08:59:51;;;;;;;9.80;6.40;;;16.10;48.30;;;;;;5078289;28;20890;-68
2022/02/28 09:02:16;;;;;;;9.60;6.68;;;16.90;44.50;;;;;;5086756;28;21138;-69
2022/02/28 09:04:42;;;;;;;9.37;6.00;;;17.40;42.60;;;;;;5089159;28;20452;-68
2022/02/28 09:07:08;;;;;;;9.40;6.37;;;17.80;41.60;;;;;;5089240;28;20735;-69
2022/02/28 09:09:33;;;;;;;9.85;6.10;;;18.10;40.80;;;;;;5090438;28;21126;-69
2022/02/28 09:11:59;;;;;;;11.07;6.23;;;18.40;40.40;;;;;;5071778;28;20448;-71
2022/02/28 09:14:25;;;;;;;10.73;6.50;;;18.70;39.40;;;;;;5099388;28;20403;-69
2022/02/28 09:16:50;;;;;;;10.97;6.13;;;18.70;38.90;;;;;;5075389;28;20509;-70
2022/02/28 09:19:16;;;;;;;9.25;6.60;;;18.60;39.20;;;;;;5077443;28;20439;-69
2022/02/28 09:21:41;;;;;;;10.70;6.78;;;18.50;38.60;;;;;;5098859;28;20404;-68
2022/02/28 09:24:07;;;;;;;15.03;6.93;;;18.20;39.50;;;;;;5092349;28;20410;-68
2022/02/28 09:26:34;;;;;;;13.00;6.40;;;18.00;39.20;;;;;;5074674;28;20745;-67
2022/02/28 09:28:59;;;;;;;11.77;6.50;;;17.70;39.40;;;;;;5079892;28;20466;-68
2022/02/28 09:31:25;;;;;;;10.17;6.60;;;17.30;42.00;;;;;;5088884;28;20406;-68
2022/02/28 09:33:51;;;;;;;9.57;6.85;;;17.20;42.20;;;;;;5075497;28;20470;-69
2022/02/28 09:36:17;;;;;;;9.95;6.50;;;17.10;41.80;;;;;;5079011;28;20409;-68
2022/02/28 09:38:42;;;;;;;10.50;6.67;;;16.90;41.80;;;;;;5107738;28;20784;-69
2022/02/28 09:41:10;;;;;;;13.32;6.78;;;16.60;41.80;;;;;;5084051;28;20416;-68
2022/02/28 09:43:43;;;;;;;12.30;6.85;;;16.40;42.70;;;;;;5093236;28;20432;-69
2022/02/28 09:46:28;;;;;;;10.40;6.85;;;16.30;43.30;;;;;;5092387;28;20401;-68
2022/02/28 09:49:13;;;;;;;12.15;6.60;;;16.10;43.60;;;;;;5092957;28;20951;-69
2022/02/28 09:51:57;;;;;;;13.15;7.13;;;16.10;43.30;;;;;;5092550;28;20392;-67
2022/02/28 09:54:41;;;;;;;11.63;6.78;;;16.10;43.70;;;;;;5089248;28;20479;-69
2022/02/28 09:57:26;;;;;;;11.85;7.40;;;16.20;44.70;;;;;;5092981;28;20397;-69
2022/02/28 09:59:59;;;;;;;10.88;6.90;;;16.30;43.80;;;;;;5081020;28;20472;-69
2022/02/28 10:02:28;;;;;;;10.15;6.93;;;16.30;44.20;;;;;;5075250;28;20394;-68
2022/02/28 10:04:54;;;;;;;11.80;7.30;;;16.20;43.80;;;;;;5073366;28;20413;-70
2022/02/28 10:07:24;;;;;;;11.43;7.50;;;16.00;43.60;;;;;;5089459;28;20404;-68
2022/02/28 10:10:11;;;;;;;12.00;7.20;;;15.70;44.70;;;;;;5102095;28;20390;-68
2022/02/28 10:12:37;;;;;;;13.38;7.40;;;15.60;45.90;;;;;;5090233;28;20986;-68
2022/02/28 10:15:18;;;;;;;11.10;7.10;;;15.50;45.40;;;;;;5092747;28;20404;-69
2022/02/28 10:17:57;;;;;;;13.77;7.28;;;15.20;44.70;;;;;;5087935;28;20416;-68
2022/02/28 10:20:37;;;;;;;10.15;7.20;;;14.90;46.00;;;;;;5088128;28;20409;-68
2022/02/28 10:23:06;;;;;;;10.93;7.43;;;14.80;47.80;;;;;;5086727;28;20459;-69
2022/02/28 10:25:48;;;;;;;13.27;7.05;;;14.60;47.00;;;;;;5078365;28;20394;-68
2022/02/28 10:28:36;;;;;;;12.90;7.57;;;14.40;48.60;;;;;;5050258;28;20394;-69
2022/02/28 10:31:24;;;;;;;12.07;7.60;;;14.30;49.00;;;;;;5088977;28;20439;-70
2022/02/28 10:34:14;;;;;;;12.70;7.70;;;14.20;49.60;;;;;;5086822;28;20452;-68
2022/02/28 10:36:59;;;;;;;11.60;7.38;;;14.20;49.50;;;;;;5090685;28;20425;-69
2022/02/28 10:39:25;;;;;;;11.77;7.40;;;14.30;51.20;;;;;;5092652;28;20445;-69
2022/02/28 10:41:52;;;;;;;11.20;7.43;;;14.30;49.40;;;;;;5090817;28;20396;-70
2022/02/28 10:44:18;;;;;;;10.70;7.50;;;14.30;50.10;;;;;;5103075;28;20448;-69
2022/02/28 10:46:46;;;;;;;12.37;7.43;;;14.30;50.10;;;;;;5089548;28;20442;-68
2022/02/28 10:49:17;;;;;;;10.50;7.30;;;14.30;49.10;;;;;;5072232;28;20402;-68
2022/02/28 10:51:47;;;;;;;11.80;7.60;;;14.20;48.50;;;;;;5085089;28;20425;-69
2022/02/28 11:30:48;;;;;;;10.00;7.60;;;14.40;47.90;;;;;;5079586;27;20402;-71
2022/02/28 11:33:16;;;;;;;14.13;7.65;;;14.50;50.50;;;;;;5065610;28;20416;-68
2022/02/28 11:35:53;;;;;;;13.60;7.38;;;14.60;50.50;;;;;;5066203;28;20455;-68
2022/02/28 11:38:18;;;;;;;13.40;8.02;;;14.60;48.60;;;;;;5061205;28;20426;-68
2022/02/28 11:40:48;;;;;;;10.63;7.25;;;14.60;49.20;;;;;;5062112;28;20792;-68
2022/02/28 11:43:23;;;;;;;10.83;7.30;;;14.60;48.70;;;;;;5072522;28;20436;-68
2022/02/28 11:45:57;;;;;;;10.43;7.05;;;14.70;48.70;;;;;;5073941;28;21003;-69
2022/02/28 11:48:27;;;;;;;12.73;7.47;;;14.70;49.70;;;;;;5071777;28;20484;-68
2022/02/28 11:50:54;;;;;;;11.90;7.40;;;14.70;48.80;;;;;;5072256;28;20405;-70
2022/02/28 11:53:48;;;;;;;12.20;8.10;;;14.60;49.70;;;;;;5064350;28;20423;-69
2022/02/28 11:56:17;;;;;;;13.95;8.18;;;14.60;50.10;;;;;;5065841;28;20400;-68
2022/02/28 11:58:50;;;;;;;11.82;7.47;;;14.70;49.70;;;;;;5062799;28;20940;-69
2022/02/28 12:01:18;;;;;;;13.27;8.00;;;14.80;50.60;;;;;;5065900;28;20412;-68
2022/02/28 12:04:10;;;;;;;11.40;7.70;;;14.80;50.10;;;;;;5067612;28;20876;-69
2022/02/28 12:07:02;;;;;;;13.00;7.73;;;14.90;49.30;;;;;;5067283;28;20420;-68
2022/02/28 12:09:36;;;;;;;13.63;7.40;;;15.00;49.80;;;;;;5058272;28;20428;-69
2022/02/28 12:12:29;;;;;;;11.60;8.13;;;15.10;48.90;;;;;;5064124;28;20470;-69
2022/02/28 12:14:59;;;;;;;11.93;7.95;;;15.10;49.90;;;;;;5067324;28;20872;-69
2022/02/28 12:17:32;;;;;;;12.40;7.70;;;15.10;49.60;;;;;;5065632;28;20395;-68
2022/02/28 12:20:19;;;;;;;11.93;7.97;;;15.10;48.50;;;;;;5063514;28;20412;-69
2022/02/28 12:23:08;;;;;;;12.03;7.63;;;15.10;48.80;;;;;;5069219;28;20414;-68
2022/02/28 12:25:36;;;;;;;12.85;7.72;;;14.90;49.10;;;;;;5079143;28;20415;-68
2022/02/28 12:28:26;;;;;;;10.48;7.72;;;14.80;49.10;;;;;;5068828;28;20799;-69
2022/02/28 12:31:02;;;;;;;12.98;7.80;;;14.70;50.80;;;;;;5066425;28;20494;-68
2022/02/28 12:33:34;;;;;;;13.97;7.80;;;14.80;50.10;;;;;;5073404;28;20395;-67
2022/02/28 12:36:17;;;;;;;11.73;7.93;;;14.80;50.30;;;;;;5067384;28;20496;-68
2022/02/28 12:38:45;;;;;;;11.00;7.93;;;14.80;50.50;;;;;;5070235;28;20896;-68
2022/02/28 12:41:16;;;;;;;11.95;7.78;;;14.80;49.70;;;;;;5058229;28;22033;-68
2022/02/28 12:43:45;;;;;;;12.18;7.78;;;14.90;52.10;;;;;;5054487;28;20496;-68
2022/02/28 12:46:16;;;;;;;10.98;7.47;;;15.00;52.20;;;;;;5062658;28;20807;-67
2022/02/28 12:48:44;;;;;;;11.60;7.53;;;15.00;50.20;;;;;;5065375;28;20428;-68
2022/02/28 12:51:12;;;;;;;11.82;7.63;;;15.00;50.30;;;;;;5051683;28;20428;-69
2022/02/28 12:53:39;;;;;;;11.83;7.37;;;15.10;49.80;;;;;;5052211;28;20867;-68
2022/02/28 12:56:06;;;;;;;13.93;7.88;;;15.20;49.00;;;;;;5049282;28;20405;-68
2022/02/28 12:58:36;;;;;;;10.32;7.75;;;15.20;49.10;;;;;;5052392;28;20405;-68
2022/02/28 13:01:06;;;;;;;10.40;7.28;;;15.20;50.90;;;;;;5061049;28;20416;-69
2022/02/28 13:03:37;;;;;;;12.10;7.50;;;15.30;50.40;;;;;;5062062;28;20899;-69
2022/02/28 13:06:02;;;;;;;11.37;7.70;;;15.30;48.70;;;;;;5048222;28;20421;-70
2022/02/28 13:08:28;;;;;;;12.40;7.45;;;15.20;49.80;;;;;;5055166;28;20437;-68
2022/02/28 13:11:16;;;;;;;10.90;7.30;;;15.10;49.60;;;;;;5050779;28;20542;-68
2022/02/28 13:13:44;;;;;;;15.23;8.15;;;15.00;49.10;;;;;;5051448;28;20397;-69
2022/02/28 13:16:11;;;;;;;12.13;7.05;;;15.10;50.30;;;;;;5051465;28;20405;-68
2022/02/28 13:18:38;;;;;;;9.53;6.80;;;15.30;50.20;;;;;;5054090;28;20408;-68
2022/02/28 13:21:04;;;;;;;11.00;7.07;;;15.40;48.80;;;;;;5060523;28;20983;-68
2022/02/28 13:23:33;;;;;;;9.35;6.97;;;15.50;48.80;;;;;;5052684;28;20918;-68
2022/02/28 13:25:59;;;;;;;9.93;7.28;;;15.60;49.20;;;;;;5049842;28;20726;-69
2022/02/28 13:28:34;;;;;;;10.75;6.75;;;15.60;48.90;;;;;;5054741;28;20415;-69